sensor_id;sensor_type;location;lat;lon;timestamp;P1;durP1;ratioP1;P2;durP2;ratioP2
70213;SDS011;60138;55.808;37.078;2022-10-12T00:01:46;28.43;;;13.87;;
70213;SDS011;60138;55.808;37.078;2022-10-12T00:04:12;26.33;;;14.52;;
70213;SDS011;60138;55.808;37.078;2022-10-12T00:06:38;34.03;;;16.30;;
70213;SDS011;60138;55.808;37.078;2022-10-12T00:09:03;32.65;;;15.45;;
70213;SDS011;60138;55.808;37.078;2022-10-12T00:11:29;31.07;;;15.57;;
70213;SDS011;60138;55.808;37.078;2022-10-12T00:13:55;32.72;;;15.50;;
70213;SDS011;60138;55.808;37.078;2022-10-12T00:16:21;31.03;;;15.73;;
70213;SDS011;60138;55.808;37.078;2022-10-12T00:18:52;33.58;;;16.70;;
70213;SDS011;60138;55.808;37.078;2022-10-12T00:21:19;30.20;;;14.32;;
70213;SDS011;60138;55.808;37.078;2022-10-12T00:23:45;31.63;;;16.63;;
70213;SDS011;60138;55.808;37.078;2022-10-12T00:26:13;38.80;;;16.38;;
70213;SDS011;60138;55.808;37.078;2022-10-12T00:28:43;30.88;;;15.02;;
70213;SDS011;60138;55.808;37.078;2022-10-12T00:31:10;29.70;;;14.00;;
70213;SDS011;60138;55.808;37.078;2022-10-12T00:33:37;29.77;;;13.53;;
70213;SDS011;60138;55.808;37.078;2022-10-12T00:38:43;25.58;;;11.55;;
70213;SDS011;60138;55.808;37.078;2022-10-12T00:41:09;25.33;;;13.47;;
70213;SDS011;60138;55.808;37.078;2022-10-12T00:43:35;29.63;;;15.00;;
70213;SDS011;60138;55.808;37.078;2022-10-12T00:46:15;27.65;;;14.65;;
70213;SDS011;60138;55.808;37.078;2022-10-12T00:48:44;28.60;;;13.53;;
70213;SDS011;60138;55.808;37.078;2022-10-12T00:51:13;26.58;;;13.10;;
70213;SDS011;60138;55.808;37.078;2022-10-12T00:53:44;27.55;;;14.48;;
70213;SDS011;60138;55.808;37.078;2022-10-12T00:56:16;32.35;;;16.13;;
70213;SDS011;60138;55.808;37.078;2022-10-12T00:58:45;27.70;;;14.32;;
70213;SDS011;60138;55.808;37.078;2022-10-12T01:01:13;30.65;;;15.90;;
70213;SDS011;60138;55.808;37.078;2022-10-12T01:03:39;28.45;;;14.13;;
70213;SDS011;60138;55.808;37.078;2022-10-12T01:06:05;36.63;;;15.33;;
70213;SDS011;60138;55.808;37.078;2022-10-12T01:08:32;29.02;;;13.55;;
70213;SDS011;60138;55.808;37.078;2022-10-12T01:10:58;26.17;;;15.05;;
70213;SDS011;60138;55.808;37.078;2022-10-12T01:13:23;29.40;;;14.87;;
70213;SDS011;60138;55.808;37.078;2022-10-12T01:15:58;29.75;;;14.38;;
70213;SDS011;60138;55.808;37.078;2022-10-12T01:18:56;29.33;;;13.13;;
70213;SDS011;60138;55.808;37.078;2022-10-12T01:21:24;23.57;;;12.77;;
70213;SDS011;60138;55.808;37.078;2022-10-12T01:38:04;25.77;;;12.70;;
70213;SDS011;60138;55.808;37.078;2022-10-12T01:43:36;23.88;;;12.38;;
70213;SDS011;60138;55.808;37.078;2022-10-12T01:48:48;27.33;;;13.55;;
70213;SDS011;60138;55.808;37.078;2022-10-12T01:51:29;20.63;;;12.20;;
70213;SDS011;60138;55.808;37.078;2022-10-12T02:02:43;27.83;;;13.40;;
70213;SDS011;60138;55.808;37.078;2022-10-12T02:07:51;27.52;;;13.88;;
70213;SDS011;60138;55.808;37.078;2022-10-12T02:10:23;19.15;;;12.05;;
70213;SDS011;60138;55.808;37.078;2022-10-12T02:12:52;22.10;;;11.40;;
70213;SDS011;60138;55.808;37.078;2022-10-12T02:15:21;22.70;;;11.48;;
70213;SDS011;60138;55.808;37.078;2022-10-12T02:17:50;27.30;;;12.13;;
70213;SDS011;60138;55.808;37.078;2022-10-12T02:20:16;24.07;;;11.03;;
70213;SDS011;60138;55.808;37.078;2022-10-12T02:22:45;18.08;;;10.27;;
70213;SDS011;60138;55.808;37.078;2022-10-12T02:25:13;26.20;;;11.38;;
70213;SDS011;60138;55.808;37.078;2022-10-12T02:27:42;19.02;;;11.13;;
70213;SDS011;60138;55.808;37.078;2022-10-12T02:30:12;18.10;;;10.10;;
70213;SDS011;60138;55.808;37.078;2022-10-12T02:32:49;23.90;;;13.02;;
70213;SDS011;60138;55.808;37.078;2022-10-12T02:35:26;26.77;;;13.40;;
70213;SDS011;60138;55.808;37.078;2022-10-12T02:38:31;30.77;;;14.00;;
70213;SDS011;60138;55.808;37.078;2022-10-12T02:41:01;24.67;;;12.80;;
70213;SDS011;60138;55.808;37.078;2022-10-12T02:43:35;26.35;;;12.45;;
70213;SDS011;60138;55.808;37.078;2022-10-12T02:46:03;27.80;;;12.83;;
70213;SDS011;60138;55.808;37.078;2022-10-12T02:48:33;22.33;;;12.15;;
70213;SDS011;60138;55.808;37.078;2022-10-12T02:51:02;22.30;;;12.32;;
70213;SDS011;60138;55.808;37.078;2022-10-12T02:53:29;23.17;;;13.32;;
70213;SDS011;60138;55.808;37.078;2022-10-12T02:55:59;22.60;;;12.43;;
70213;SDS011;60138;55.808;37.078;2022-10-12T02:58:26;25.80;;;12.90;;
70213;SDS011;60138;55.808;37.078;2022-10-12T03:00:52;21.30;;;13.00;;
70213;SDS011;60138;55.808;37.078;2022-10-12T03:03:18;29.25;;;14.77;;
70213;SDS011;60138;55.808;37.078;2022-10-12T03:05:43;33.60;;;15.93;;
70213;SDS011;60138;55.808;37.078;2022-10-12T03:08:10;28.48;;;12.95;;
70213;SDS011;60138;55.808;37.078;2022-10-12T03:10:35;36.67;;;14.35;;
70213;SDS011;60138;55.808;37.078;2022-10-12T03:13:01;27.33;;;13.00;;
70213;SDS011;60138;55.808;37.078;2022-10-12T03:15:27;22.50;;;13.60;;
70213;SDS011;60138;55.808;37.078;2022-10-12T03:17:53;25.10;;;13.07;;
70213;SDS011;60138;55.808;37.078;2022-10-12T03:20:18;25.10;;;12.25;;
70213;SDS011;60138;55.808;37.078;2022-10-12T03:22:45;25.87;;;12.13;;
70213;SDS011;60138;55.808;37.078;2022-10-12T03:25:11;22.33;;;12.25;;
70213;SDS011;60138;55.808;37.078;2022-10-12T03:27:36;30.27;;;12.95;;
70213;SDS011;60138;55.808;37.078;2022-10-12T03:30:02;29.77;;;12.93;;
70213;SDS011;60138;55.808;37.078;2022-10-12T03:32:29;27.88;;;12.95;;
70213;SDS011;60138;55.808;37.078;2022-10-12T03:34:55;25.10;;;11.23;;
70213;SDS011;60138;55.808;37.078;2022-10-12T03:37:21;22.55;;;11.93;;
70213;SDS011;60138;55.808;37.078;2022-10-12T03:39:46;27.87;;;12.73;;
70213;SDS011;60138;55.808;37.078;2022-10-12T03:42:12;24.15;;;11.25;;
70213;SDS011;60138;55.808;37.078;2022-10-12T03:44:37;21.03;;;13.67;;
70213;SDS011;60138;55.808;37.078;2022-10-12T03:47:03;22.77;;;13.15;;
70213;SDS011;60138;55.808;37.078;2022-10-12T03:49:29;24.45;;;13.75;;
70213;SDS011;60138;55.808;37.078;2022-10-12T03:51:54;21.13;;;13.37;;
70213;SDS011;60138;55.808;37.078;2022-10-12T03:54:20;27.08;;;14.05;;
70213;SDS011;60138;55.808;37.078;2022-10-12T03:56:46;25.67;;;13.97;;
70213;SDS011;60138;55.808;37.078;2022-10-12T03:59:11;25.50;;;14.30;;
70213;SDS011;60138;55.808;37.078;2022-10-12T04:01:37;25.30;;;14.10;;
70213;SDS011;60138;55.808;37.078;2022-10-12T04:04:03;26.37;;;14.37;;
70213;SDS011;60138;55.808;37.078;2022-10-12T04:06:28;26.02;;;13.50;;
70213;SDS011;60138;55.808;37.078;2022-10-12T04:08:54;25.57;;;13.77;;
70213;SDS011;60138;55.808;37.078;2022-10-12T04:11:20;27.40;;;13.32;;
70213;SDS011;60138;55.808;37.078;2022-10-12T04:13:45;27.90;;;14.83;;
70213;SDS011;60138;55.808;37.078;2022-10-12T04:16:11;27.45;;;14.13;;
70213;SDS011;60138;55.808;37.078;2022-10-12T04:18:37;26.37;;;13.80;;
70213;SDS011;60138;55.808;37.078;2022-10-12T04:21:04;23.55;;;13.75;;
70213;SDS011;60138;55.808;37.078;2022-10-12T04:23:33;30.13;;;16.02;;
70213;SDS011;60138;55.808;37.078;2022-10-12T04:25:59;24.40;;;14.17;;
70213;SDS011;60138;55.808;37.078;2022-10-12T04:28:25;24.77;;;12.80;;
70213;SDS011;60138;55.808;37.078;2022-10-12T04:30:50;26.30;;;13.88;;
70213;SDS011;60138;55.808;37.078;2022-10-12T04:33:16;25.40;;;14.23;;
70213;SDS011;60138;55.808;37.078;2022-10-12T04:35:41;26.75;;;13.55;;
70213;SDS011;60138;55.808;37.078;2022-10-12T04:38:07;25.50;;;13.93;;
70213;SDS011;60138;55.808;37.078;2022-10-12T04:40:33;30.00;;;12.90;;
70213;SDS011;60138;55.808;37.078;2022-10-12T04:42:59;28.27;;;13.50;;
70213;SDS011;60138;55.808;37.078;2022-10-12T04:45:24;24.17;;;14.40;;
70213;SDS011;60138;55.808;37.078;2022-10-12T04:47:50;25.00;;;12.60;;
70213;SDS011;60138;55.808;37.078;2022-10-12T04:50:15;24.93;;;13.23;;
70213;SDS011;60138;55.808;37.078;2022-10-12T04:52:41;30.75;;;12.95;;
70213;SDS011;60138;55.808;37.078;2022-10-12T04:55:07;24.57;;;14.23;;
70213;SDS011;60138;55.808;37.078;2022-10-12T04:57:33;29.05;;;13.07;;
70213;SDS011;60138;55.808;37.078;2022-10-12T04:59:58;24.43;;;13.10;;
70213;SDS011;60138;55.808;37.078;2022-10-12T05:02:24;25.67;;;14.63;;
70213;SDS011;60138;55.808;37.078;2022-10-12T05:04:50;25.17;;;12.67;;
70213;SDS011;60138;55.808;37.078;2022-10-12T05:07:15;30.60;;;12.63;;
70213;SDS011;60138;55.808;37.078;2022-10-12T05:09:41;25.57;;;12.80;;
70213;SDS011;60138;55.808;37.078;2022-10-12T05:12:07;22.43;;;11.63;;
70213;SDS011;60138;55.808;37.078;2022-10-12T05:14:32;24.33;;;12.80;;
70213;SDS011;60138;55.808;37.078;2022-10-12T05:16:58;20.00;;;11.87;;
70213;SDS011;60138;55.808;37.078;2022-10-12T05:19:23;25.27;;;12.90;;
70213;SDS011;60138;55.808;37.078;2022-10-12T05:21:49;22.83;;;12.77;;
70213;SDS011;60138;55.808;37.078;2022-10-12T05:24:15;26.90;;;12.63;;
70213;SDS011;60138;55.808;37.078;2022-10-12T05:26:40;24.15;;;14.50;;
70213;SDS011;60138;55.808;37.078;2022-10-12T05:29:06;19.70;;;12.87;;
70213;SDS011;60138;55.808;37.078;2022-10-12T05:31:32;21.90;;;13.07;;
70213;SDS011;60138;55.808;37.078;2022-10-12T05:33:57;22.65;;;12.40;;
70213;SDS011;60138;55.808;37.078;2022-10-12T05:36:23;19.57;;;11.57;;
70213;SDS011;60138;55.808;37.078;2022-10-12T05:38:49;24.10;;;12.68;;
70213;SDS011;60138;55.808;37.078;2022-10-12T05:41:14;27.20;;;12.93;;
70213;SDS011;60138;55.808;37.078;2022-10-12T05:43:40;24.90;;;13.52;;
70213;SDS011;60138;55.808;37.078;2022-10-12T05:46:05;25.60;;;12.47;;
70213;SDS011;60138;55.808;37.078;2022-10-12T05:48:31;25.20;;;12.60;;
70213;SDS011;60138;55.808;37.078;2022-10-12T05:50:57;21.17;;;12.02;;
70213;SDS011;60138;55.808;37.078;2022-10-12T05:53:23;24.47;;;12.23;;
70213;SDS011;60138;55.808;37.078;2022-10-12T05:56:07;24.08;;;12.23;;
70213;SDS011;60138;55.808;37.078;2022-10-12T05:58:32;16.70;;;11.18;;
70213;SDS011;60138;55.808;37.078;2022-10-12T06:01:08;24.67;;;12.20;;
70213;SDS011;60138;55.808;37.078;2022-10-12T06:03:36;20.40;;;10.70;;
70213;SDS011;60138;55.808;37.078;2022-10-12T06:06:02;17.13;;;10.10;;
70213;SDS011;60138;55.808;37.078;2022-10-12T06:08:29;19.15;;;10.85;;
70213;SDS011;60138;55.808;37.078;2022-10-12T06:10:55;19.27;;;9.07;;
70213;SDS011;60138;55.808;37.078;2022-10-12T06:13:21;18.52;;;10.75;;
70213;SDS011;60138;55.808;37.078;2022-10-12T06:15:47;16.55;;;9.27;;
70213;SDS011;60138;55.808;37.078;2022-10-12T06:18:14;18.67;;;10.70;;
70213;SDS011;60138;55.808;37.078;2022-10-12T06:20:44;18.35;;;10.43;;
70213;SDS011;60138;55.808;37.078;2022-10-12T06:23:14;16.55;;;10.93;;
70213;SDS011;60138;55.808;37.078;2022-10-12T06:25:40;14.75;;;10.30;;
70213;SDS011;60138;55.808;37.078;2022-10-12T06:28:05;18.10;;;12.20;;
70213;SDS011;60138;55.808;37.078;2022-10-12T06:30:31;20.08;;;11.45;;
70213;SDS011;60138;55.808;37.078;2022-10-12T06:32:57;18.23;;;11.20;;
70213;SDS011;60138;55.808;37.078;2022-10-12T06:35:22;20.37;;;10.50;;
70213;SDS011;60138;55.808;37.078;2022-10-12T06:37:48;14.73;;;10.18;;
70213;SDS011;60138;55.808;37.078;2022-10-12T06:40:14;21.83;;;9.05;;
70213;SDS011;60138;55.808;37.078;2022-10-12T06:42:41;51.60;;;12.00;;
70213;SDS011;60138;55.808;37.078;2022-10-12T06:45:07;16.65;;;9.02;;
70213;SDS011;60138;55.808;37.078;2022-10-12T06:47:33;13.38;;;8.95;;
70213;SDS011;60138;55.808;37.078;2022-10-12T06:49:58;18.43;;;9.43;;
70213;SDS011;60138;55.808;37.078;2022-10-12T06:52:24;17.97;;;8.17;;
70213;SDS011;60138;55.808;37.078;2022-10-12T06:54:50;15.63;;;8.90;;
70213;SDS011;60138;55.808;37.078;2022-10-12T06:57:15;13.13;;;7.97;;
70213;SDS011;60138;55.808;37.078;2022-10-12T06:59:41;17.40;;;9.57;;
70213;SDS011;60138;55.808;37.078;2022-10-12T07:02:08;17.80;;;8.57;;
70213;SDS011;60138;55.808;37.078;2022-10-12T07:04:35;15.07;;;7.53;;
70213;SDS011;60138;55.808;37.078;2022-10-12T07:07:01;18.05;;;8.85;;
70213;SDS011;60138;55.808;37.078;2022-10-12T07:09:26;13.57;;;8.30;;
70213;SDS011;60138;55.808;37.078;2022-10-12T07:11:52;14.80;;;8.40;;
70213;SDS011;60138;55.808;37.078;2022-10-12T07:14:18;14.90;;;8.43;;
70213;SDS011;60138;55.808;37.078;2022-10-12T07:16:43;14.05;;;8.00;;
70213;SDS011;60138;55.808;37.078;2022-10-12T07:19:09;11.80;;;8.02;;
70213;SDS011;60138;55.808;37.078;2022-10-12T07:21:35;15.10;;;9.67;;
70213;SDS011;60138;55.808;37.078;2022-10-12T07:24:00;12.02;;;8.45;;
70213;SDS011;60138;55.808;37.078;2022-10-12T07:26:26;25.47;;;10.83;;
70213;SDS011;60138;55.808;37.078;2022-10-12T07:28:52;13.77;;;8.60;;
70213;SDS011;60138;55.808;37.078;2022-10-12T07:31:17;11.50;;;8.35;;
70213;SDS011;60138;55.808;37.078;2022-10-12T07:33:43;14.67;;;8.00;;
70213;SDS011;60138;55.808;37.078;2022-10-12T07:36:08;28.45;;;13.07;;
70213;SDS011;60138;55.808;37.078;2022-10-12T07:38:34;54.50;;;24.60;;
70213;SDS011;60138;55.808;37.078;2022-10-12T07:41:00;112.85;;;39.92;;
70213;SDS011;60138;55.808;37.078;2022-10-12T07:43:27;70.05;;;24.73;;
70213;SDS011;60138;55.808;37.078;2022-10-12T07:45:54;39.37;;;13.67;;
70213;SDS011;60138;55.808;37.078;2022-10-12T07:48:20;19.88;;;10.00;;
70213;SDS011;60138;55.808;37.078;2022-10-12T07:50:46;23.33;;;11.32;;
70213;SDS011;60138;55.808;37.078;2022-10-12T07:53:12;8.23;;;5.22;;
70213;SDS011;60138;55.808;37.078;2022-10-12T07:55:38;27.43;;;16.40;;
70213;SDS011;60138;55.808;37.078;2022-10-12T07:58:04;12.75;;;7.05;;
70213;SDS011;60138;55.808;37.078;2022-10-12T08:00:30;11.67;;;5.80;;
70213;SDS011;60138;55.808;37.078;2022-10-12T08:02:56;11.77;;;6.13;;
70213;SDS011;60138;55.808;37.078;2022-10-12T08:05:22;12.90;;;5.43;;
70213;SDS011;60138;55.808;37.078;2022-10-12T08:07:48;9.03;;;5.20;;
70213;SDS011;60138;55.808;37.078;2022-10-12T08:10:15;10.50;;;5.50;;
70213;SDS011;60138;55.808;37.078;2022-10-12T08:12:41;14.52;;;5.78;;
70213;SDS011;60138;55.808;37.078;2022-10-12T08:15:08;10.25;;;6.28;;
70213;SDS011;60138;55.808;37.078;2022-10-12T08:17:34;13.80;;;8.77;;
70213;SDS011;60138;55.808;37.078;2022-10-12T08:19:59;19.88;;;8.93;;
70213;SDS011;60138;55.808;37.078;2022-10-12T08:22:25;17.53;;;7.80;;
70213;SDS011;60138;55.808;37.078;2022-10-12T08:24:50;21.00;;;9.07;;
70213;SDS011;60138;55.808;37.078;2022-10-12T08:27:16;16.40;;;7.80;;
70213;SDS011;60138;55.808;37.078;2022-10-12T08:29:42;21.70;;;9.75;;
70213;SDS011;60138;55.808;37.078;2022-10-12T08:32:07;19.98;;;8.65;;
70213;SDS011;60138;55.808;37.078;2022-10-12T08:34:33;28.33;;;9.53;;
70213;SDS011;60138;55.808;37.078;2022-10-12T08:36:58;27.85;;;10.15;;
70213;SDS011;60138;55.808;37.078;2022-10-12T08:39:24;27.57;;;9.80;;
70213;SDS011;60138;55.808;37.078;2022-10-12T08:47:40;6.93;;;4.53;;
70213;SDS011;60138;55.808;37.078;2022-10-12T08:50:15;10.32;;;4.80;;
70213;SDS011;60138;55.808;37.078;2022-10-12T08:52:50;7.68;;;4.68;;
70213;SDS011;60138;55.808;37.078;2022-10-12T08:58:17;10.63;;;6.18;;
70213;SDS011;60138;55.808;37.078;2022-10-12T09:00:51;8.80;;;5.53;;
70213;SDS011;60138;55.808;37.078;2022-10-12T09:06:27;8.20;;;5.28;;
70213;SDS011;60138;55.808;37.078;2022-10-12T09:09:01;9.88;;;5.10;;
70213;SDS011;60138;55.808;37.078;2022-10-12T09:14:09;8.37;;;4.17;;
70213;SDS011;60138;55.808;37.078;2022-10-12T09:16:41;14.60;;;6.65;;
70213;SDS011;60138;55.808;37.078;2022-10-12T09:19:20;10.82;;;5.47;;
70213;SDS011;60138;55.808;37.078;2022-10-12T09:21:48;13.32;;;6.35;;
70213;SDS011;60138;55.808;37.078;2022-10-12T09:24:34;27.05;;;7.95;;
70213;SDS011;60138;55.808;37.078;2022-10-12T09:27:07;39.40;;;13.20;;
70213;SDS011;60138;55.808;37.078;2022-10-12T09:29:38;42.22;;;13.68;;
70213;SDS011;60138;55.808;37.078;2022-10-12T09:34:51;34.15;;;11.80;;
70213;SDS011;60138;55.808;37.078;2022-10-12T09:37:18;12.00;;;5.80;;
70213;SDS011;60138;55.808;37.078;2022-10-12T09:39:46;11.70;;;6.50;;
70213;SDS011;60138;55.808;37.078;2022-10-12T09:42:13;10.38;;;5.70;;
70213;SDS011;60138;55.808;37.078;2022-10-12T09:44:39;10.93;;;4.82;;
70213;SDS011;60138;55.808;37.078;2022-10-12T09:49:46;14.23;;;6.80;;
70213;SDS011;60138;55.808;37.078;2022-10-12T09:52:13;13.32;;;5.60;;
70213;SDS011;60138;55.808;37.078;2022-10-12T09:54:54;17.42;;;8.18;;
70213;SDS011;60138;55.808;37.078;2022-10-12T09:59:56;11.07;;;6.07;;
70213;SDS011;60138;55.808;37.078;2022-10-12T10:02:23;13.98;;;7.53;;
70213;SDS011;60138;55.808;37.078;2022-10-12T10:04:50;19.13;;;7.35;;
70213;SDS011;60138;55.808;37.078;2022-10-12T10:07:24;12.47;;;6.77;;
70213;SDS011;60138;55.808;37.078;2022-10-12T10:12:33;11.88;;;6.50;;
70213;SDS011;60138;55.808;37.078;2022-10-12T10:15:04;13.60;;;4.75;;
70213;SDS011;60138;55.808;37.078;2022-10-12T10:17:45;10.93;;;6.05;;
70213;SDS011;60138;55.808;37.078;2022-10-12T10:20:21;11.67;;;6.60;;
70213;SDS011;60138;55.808;37.078;2022-10-12T10:22:52;12.20;;;6.13;;
70213;SDS011;60138;55.808;37.078;2022-10-12T10:25:18;9.80;;;5.28;;
70213;SDS011;60138;55.808;37.078;2022-10-12T10:27:45;11.85;;;6.07;;
70213;SDS011;60138;55.808;37.078;2022-10-12T10:32:40;10.98;;;6.57;;
70213;SDS011;60138;55.808;37.078;2022-10-12T10:37:36;12.30;;;6.38;;
70213;SDS011;60138;55.808;37.078;2022-10-12T10:40:13;21.00;;;6.97;;
70213;SDS011;60138;55.808;37.078;2022-10-12T10:42:41;15.75;;;6.72;;
70213;SDS011;60138;55.808;37.078;2022-10-12T10:45:07;19.15;;;8.07;;
70213;SDS011;60138;55.808;37.078;2022-10-12T10:47:47;11.00;;;5.30;;
70213;SDS011;60138;55.808;37.078;2022-10-12T10:50:23;10.97;;;5.73;;
70213;SDS011;60138;55.808;37.078;2022-10-12T10:52:55;14.52;;;4.55;;
70213;SDS011;60138;55.808;37.078;2022-10-12T10:55:25;13.40;;;5.53;;
70213;SDS011;60138;55.808;37.078;2022-10-12T10:58:05;8.30;;;4.95;;
70213;SDS011;60138;55.808;37.078;2022-10-12T11:00:53;7.80;;;5.45;;
70213;SDS011;60138;55.808;37.078;2022-10-12T11:08:42;17.50;;;5.80;;
70213;SDS011;60138;55.808;37.078;2022-10-12T11:11:13;10.27;;;5.22;;
70213;SDS011;60138;55.808;37.078;2022-10-12T11:22:28;14.63;;;5.88;;
70213;SDS011;60138;55.808;37.078;2022-10-12T11:24:34;7.60;;;4.15;;
70213;SDS011;60138;55.808;37.078;2022-10-12T11:27:19;10.55;;;5.78;;
70213;SDS011;60138;55.808;37.078;2022-10-12T11:29:51;21.07;;;7.43;;
70213;SDS011;60138;55.808;37.078;2022-10-12T11:35:03;17.42;;;6.93;;
70213;SDS011;60138;55.808;37.078;2022-10-12T11:40:32;10.70;;;5.45;;
70213;SDS011;60138;55.808;37.078;2022-10-12T11:43:06;13.43;;;5.40;;
70213;SDS011;60138;55.808;37.078;2022-10-12T11:45:39;9.85;;;4.97;;
70213;SDS011;60138;55.808;37.078;2022-10-12T11:48:13;15.75;;;5.60;;
70213;SDS011;60138;55.808;37.078;2022-10-12T11:50:47;20.50;;;6.07;;
70213;SDS011;60138;55.808;37.078;2022-10-12T11:53:33;15.75;;;6.40;;
70213;SDS011;60138;55.808;37.078;2022-10-12T11:56:15;10.77;;;4.60;;
70213;SDS011;60138;55.808;37.078;2022-10-12T11:58:54;9.55;;;5.05;;
70213;SDS011;60138;55.808;37.078;2022-10-12T12:01:35;18.67;;;7.75;;
70213;SDS011;60138;55.808;37.078;2022-10-12T12:04:22;20.23;;;8.15;;
70213;SDS011;60138;55.808;37.078;2022-10-12T12:06:54;12.13;;;5.78;;
70213;SDS011;60138;55.808;37.078;2022-10-12T12:09:32;20.73;;;7.90;;
70213;SDS011;60138;55.808;37.078;2022-10-12T12:12:17;22.55;;;9.13;;
70213;SDS011;60138;55.808;37.078;2022-10-12T12:14:46;11.77;;;5.20;;
70213;SDS011;60138;55.808;37.078;2022-10-12T12:19:44;15.47;;;7.87;;
70213;SDS011;60138;55.808;37.078;2022-10-12T12:24:36;10.17;;;6.50;;
70213;SDS011;60138;55.808;37.078;2022-10-12T12:27:03;12.52;;;6.60;;
70213;SDS011;60138;55.808;37.078;2022-10-12T12:29:48;15.48;;;8.32;;
70213;SDS011;60138;55.808;37.078;2022-10-12T12:32:16;12.70;;;5.72;;
70213;SDS011;60138;55.808;37.078;2022-10-12T12:34:56;13.57;;;6.75;;
70213;SDS011;60138;55.808;37.078;2022-10-12T12:37:25;12.63;;;6.47;;
70213;SDS011;60138;55.808;37.078;2022-10-12T12:39:57;9.40;;;6.30;;
70213;SDS011;60138;55.808;37.078;2022-10-12T12:42:27;9.75;;;6.88;;
70213;SDS011;60138;55.808;37.078;2022-10-12T12:44:54;12.50;;;6.30;;
70213;SDS011;60138;55.808;37.078;2022-10-12T12:47:21;12.97;;;6.90;;
70213;SDS011;60138;55.808;37.078;2022-10-12T12:52:59;10.30;;;6.43;;
70213;SDS011;60138;55.808;37.078;2022-10-12T12:55:35;9.43;;;6.13;;
70213;SDS011;60138;55.808;37.078;2022-10-12T13:03:47;15.18;;;6.65;;
70213;SDS011;60138;55.808;37.078;2022-10-12T13:17:15;15.25;;;6.63;;
70213;SDS011;60138;55.808;37.078;2022-10-12T13:20:04;16.15;;;7.07;;
70213;SDS011;60138;55.808;37.078;2022-10-12T13:22:39;18.42;;;8.43;;
70213;SDS011;60138;55.808;37.078;2022-10-12T13:25:06;25.53;;;9.47;;
70213;SDS011;60138;55.808;37.078;2022-10-12T13:27:40;16.02;;;6.60;;
70213;SDS011;60138;55.808;37.078;2022-10-12T13:38:04;29.80;;;12.43;;
70213;SDS011;60138;55.808;37.078;2022-10-12T13:40:49;39.42;;;13.77;;
70213;SDS011;60138;55.808;37.078;2022-10-12T13:46:12;26.55;;;11.43;;
70213;SDS011;60138;55.808;37.078;2022-10-12T13:48:58;21.63;;;11.40;;
70213;SDS011;60138;55.808;37.078;2022-10-12T13:51:26;23.35;;;12.70;;
70213;SDS011;60138;55.808;37.078;2022-10-12T13:53:53;57.65;;;25.25;;
70213;SDS011;60138;55.808;37.078;2022-10-12T13:56:24;35.42;;;18.55;;
70213;SDS011;60138;55.808;37.078;2022-10-12T13:58:52;15.80;;;8.30;;
70213;SDS011;60138;55.808;37.078;2022-10-12T14:01:22;14.97;;;6.90;;
70213;SDS011;60138;55.808;37.078;2022-10-12T14:03:48;14.45;;;7.35;;
70213;SDS011;60138;55.808;37.078;2022-10-12T14:06:30;19.23;;;8.52;;
70213;SDS011;60138;55.808;37.078;2022-10-12T14:09:00;15.47;;;9.10;;
70213;SDS011;60138;55.808;37.078;2022-10-12T14:11:32;17.42;;;10.57;;
70213;SDS011;60138;55.808;37.078;2022-10-12T14:13:58;23.48;;;9.25;;
70213;SDS011;60138;55.808;37.078;2022-10-12T14:16:25;16.40;;;8.50;;
70213;SDS011;60138;55.808;37.078;2022-10-12T14:18:50;15.93;;;7.80;;
70213;SDS011;60138;55.808;37.078;2022-10-12T14:21:18;17.92;;;7.88;;
70213;SDS011;60138;55.808;37.078;2022-10-12T14:23:45;20.98;;;8.93;;
70213;SDS011;60138;55.808;37.078;2022-10-12T14:26:25;16.42;;;8.40;;
70213;SDS011;60138;55.808;37.078;2022-10-12T14:31:51;11.77;;;6.13;;
70213;SDS011;60138;55.808;37.078;2022-10-12T14:37:03;13.98;;;7.25;;
70213;SDS011;60138;55.808;37.078;2022-10-12T14:39:50;15.23;;;8.20;;
70213;SDS011;60138;55.808;37.078;2022-10-12T14:44:47;14.02;;;7.53;;
70213;SDS011;60138;55.808;37.078;2022-10-12T14:47:20;13.02;;;8.45;;
70213;SDS011;60138;55.808;37.078;2022-10-12T14:49:49;17.42;;;7.72;;
70213;SDS011;60138;55.808;37.078;2022-10-12T14:54:54;13.63;;;7.43;;
70213;SDS011;60138;55.808;37.078;2022-10-12T14:57:22;21.50;;;8.05;;
70213;SDS011;60138;55.808;37.078;2022-10-12T14:59:49;12.63;;;7.18;;
70213;SDS011;60138;55.808;37.078;2022-10-12T15:02:22;15.90;;;8.03;;
70213;SDS011;60138;55.808;37.078;2022-10-12T15:05:06;16.05;;;8.85;;
70213;SDS011;60138;55.808;37.078;2022-10-12T15:07:33;20.67;;;8.60;;
70213;SDS011;60138;55.808;37.078;2022-10-12T15:09:59;13.67;;;8.23;;
70213;SDS011;60138;55.808;37.078;2022-10-12T15:12:25;17.98;;;8.35;;
70213;SDS011;60138;55.808;37.078;2022-10-12T15:14:55;15.98;;;8.13;;
70213;SDS011;60138;55.808;37.078;2022-10-12T15:17:22;13.90;;;8.45;;
70213;SDS011;60138;55.808;37.078;2022-10-12T15:19:49;18.90;;;9.43;;
70213;SDS011;60138;55.808;37.078;2022-10-12T15:22:22;19.60;;;8.82;;
70213;SDS011;60138;55.808;37.078;2022-10-12T15:24:50;18.98;;;7.80;;
70213;SDS011;60138;55.808;37.078;2022-10-12T15:27:17;17.52;;;8.73;;
70213;SDS011;60138;55.808;37.078;2022-10-12T15:29:42;17.70;;;9.23;;
70213;SDS011;60138;55.808;37.078;2022-10-12T15:32:09;20.80;;;9.77;;
70213;SDS011;60138;55.808;37.078;2022-10-12T15:34:37;17.13;;;9.15;;
70213;SDS011;60138;55.808;37.078;2022-10-12T15:37:02;16.00;;;8.40;;
70213;SDS011;60138;55.808;37.078;2022-10-12T15:39:28;16.50;;;9.20;;
70213;SDS011;60138;55.808;37.078;2022-10-12T15:41:54;18.10;;;8.57;;
70213;SDS011;60138;55.808;37.078;2022-10-12T15:44:20;19.40;;;8.05;;
70213;SDS011;60138;55.808;37.078;2022-10-12T15:46:45;18.30;;;8.87;;
70213;SDS011;60138;55.808;37.078;2022-10-12T15:49:14;22.95;;;11.27;;
70213;SDS011;60138;55.808;37.078;2022-10-12T15:51:43;18.58;;;10.43;;
70213;SDS011;60138;55.808;37.078;2022-10-12T15:54:11;19.77;;;10.02;;
70213;SDS011;60138;55.808;37.078;2022-10-12T15:56:38;27.23;;;10.60;;
70213;SDS011;60138;55.808;37.078;2022-10-12T15:59:04;21.60;;;11.43;;
70213;SDS011;60138;55.808;37.078;2022-10-12T16:01:29;25.13;;;12.60;;
70213;SDS011;60138;55.808;37.078;2022-10-12T16:03:56;20.05;;;13.35;;
70213;SDS011;60138;55.808;37.078;2022-10-12T16:06:22;21.85;;;11.32;;
70213;SDS011;60138;55.808;37.078;2022-10-12T16:08:48;16.80;;;11.10;;
70213;SDS011;60138;55.808;37.078;2022-10-12T16:11:14;17.13;;;11.30;;
70213;SDS011;60138;55.808;37.078;2022-10-12T16:13:41;25.95;;;12.88;;
70213;SDS011;60138;55.808;37.078;2022-10-12T16:16:07;23.50;;;13.32;;
70213;SDS011;60138;55.808;37.078;2022-10-12T16:18:33;23.57;;;13.67;;
70213;SDS011;60138;55.808;37.078;2022-10-12T16:20:58;22.33;;;13.20;;
70213;SDS011;60138;55.808;37.078;2022-10-12T16:23:25;21.83;;;10.77;;
70213;SDS011;60138;55.808;37.078;2022-10-12T16:25:53;23.00;;;10.75;;
70213;SDS011;60138;55.808;37.078;2022-10-12T16:28:19;23.42;;;11.82;;
70213;SDS011;60138;55.808;37.078;2022-10-12T16:30:46;19.97;;;10.63;;
70213;SDS011;60138;55.808;37.078;2022-10-12T16:33:11;24.90;;;13.85;;
70213;SDS011;60138;55.808;37.078;2022-10-12T16:35:37;29.60;;;15.17;;